• Join FlightAware (Why Join?)
  • Login
  • US Flag 
12:26PM EDT


 

Airport Tracker/Info


-or-


 

Live Flight TrackerFlight Track Log ✈ FDX3613 ✈ 08-May-2013 ✈ KSAN - KIND

Flight Track Log - Related Links

Times and Time Zones

All times are in EDT time to prevent confusion due to time zone crossing. See the FDX3613 flight status page for this flight to view local times or setup timezone preferences in your user account.

Time Position Orientation Groundspeed Altitude Reporting Facility
EDT Latitude Longitude Course Direction KTS MPH feet Rate Location/Type
10:27AM 32.7380 -117.2060 285° West 165 190 300  Level FlightAware
10:27AM 32.7440 -117.2320 285° West 184 212 1,300 1,620 Climbing FlightAware
10:28AM 32.7500 -117.2580 285° West 215 247 1,800 1,620 Climbing FlightAware
10:28AM 32.7540 -117.2760 285° West 226 260 2,400 2,940 Climbing FlightAware
10:29AM 32.7470 -117.3230 260° West 234 269 4,500 2,820 Climbing FlightAware
10:29AM 32.7330 -117.3330 211° Southwest 248 285 5,000 2,400 Climbing FlightAware
10:29AM 32.7210 -117.3350 188° South 251 289 5,500 2,760 Climbing FlightAware
10:29AM 32.7000 -117.3260 160° South 255 293 6,400 2,700 Climbing FlightAware
10:30AM 32.6850 -117.3130 144° Southeast 258 297 7,100 2,700 Climbing FlightAware
10:30AM 32.6650 -117.2850 130° Southeast 263 303 8,200 2,520 Climbing FlightAware
10:30AM 32.6560 -117.2660 119° Southeast 271 312 8,800 2,160 Climbing FlightAware
10:31AM 32.6500 -117.2450 109° East 282 325 9,300 1,800 Climbing FlightAware
10:31AM 32.6430 -117.1900 99° East 306 352 10,300 1,200 Climbing FlightAware
10:32AM 32.6260 -117.0750 100° East 368 423 11,600 1,800 Climbing FlightAware
10:33AM 32.6130 -116.9570 97° East 387 445 14,000 1,920 Climbing FlightAware
10:34AM 32.6230 -116.8560 83° East 395 455 14,700 420 Climbing FlightAware
10:35AM 32.6310 -116.7830 83° East 395 455 14,700  Level FlightAware
10:35AM 32.6380 -116.7100 83° East 395 455 14,700 2,940 Level FlightAware
10:37AM 32.6578 -116.5022 83° East 427 491 20,400 3,180 Climbing Los Angeles Center
10:38AM 32.6706 -116.3606 84° East 438 504 22,000 1,320 Climbing Los Angeles Center
10:39AM 32.6844 -116.2131 84° East 456 525 23,200 1,200 Climbing Los Angeles Center
10:40AM 32.6986 -116.0606 84° East 468 539 24,600 1,380 Climbing Los Angeles Center
10:41AM 32.7158 -115.8719 84° East 482 555 26,100 1,140 Climbing Los Angeles Center
10:42AM 32.7278 -115.7436 84° East 490 564 27,000 1,080 Climbing Los Angeles Center
10:43AM 32.7469 -115.5469 83° East 499 574 28,400 1,200 Climbing Los Angeles Center
10:44AM 32.7908 -115.3889 72° East 507 583 29,500 960 Climbing Los Angeles Center
10:45AM 32.8406 -115.2261 70° East 520 598 30,400 900 Climbing Los Angeles Center
10:46AM 32.8883 -115.0617 71° East 528 608 31,400 960 Climbing Los Angeles Center
10:47AM 32.9444 -114.8631 71° East 530 610 32,500 540 Climbing Los Angeles Center
10:52AM 33.1870 -114.0030 71° East 534 615 35,000 420 Climbing FlightAware
10:53AM 33.2170 -113.8940 72° East 538 619 35,000  Level FlightAware
10:54AM 33.2510 -113.7750 71° East 538 619 35,000  Level FlightAware
10:54AM 33.2880 -113.6420 72° East 538 619 35,000  Level FlightAware
10:55AM 33.3220 -113.5140 72° East 533 613 35,000  Level FlightAware
10:56AM 33.3540 -113.3960 72° East 535 616 35,000  Level FlightAware
10:56AM 33.3840 -113.2860 72° East 536 617 35,000  Level FlightAware
10:57AM 33.4270 -113.1280 72° East 539 620 35,000  Level FlightAware
10:58AM 33.4600 -113.0020 73° East 540 621 35,000  Level FlightAware
10:59AM 33.4920 -112.8850 72° East 541 623 35,000  Level FlightAware
10:59AM 33.5260 -112.7570 72° East 544 626 35,000  Level FlightAware
11:00AM 33.5560 -112.6450 72° East 543 625 35,000  Level FlightAware
11:01AM 33.5860 -112.5270 73° East 544 626 35,000  Level FlightAware
11:01AM 33.6220 -112.3940 72° East 546 628 35,000 60 Level FlightAware
11:02AM 33.6520 -112.2820 72° East 547 629 35,100 60 Climbing FlightAware
11:03AM 33.6850 -112.1540 73° East 545 627 35,100 -120 Level FlightAware
11:03AM 33.7150 -112.0360 73° East 544 626 35,000 -120 Descending FlightAware
11:04AM 33.7450 -111.9210 73° East 544 626 35,000  Level FlightAware
11:05AM 33.7790 -111.7910 73° East 544 626 35,000  Level FlightAware
11:06AM 33.8080 -111.6750 73° East 542 624 35,000  Level FlightAware
11:06AM 33.8410 -111.5460 73° East 543 625 35,000  Level FlightAware
11:07AM 33.8700 -111.4300 73° East 542 624 35,000  Level FlightAware
11:08AM 33.8990 -111.3180 73° East 542 624 35,000  Level FlightAware
11:08AM 33.9320 -111.1850 73° East 543 625 35,000  Level FlightAware
11:09AM 33.9610 -111.0690 73° East 543 625 35,000  Level FlightAware
11:10AM 33.9910 -110.9500 73° East 543 625 35,000  Level FlightAware
11:10AM 34.0210 -110.8290 73° East 543 625 35,000  Level FlightAware
11:11AM 34.0510 -110.7100 73° East 543 625 35,000  Level FlightAware
11:12AM 34.0830 -110.5760 74° East 543 625 35,000  Level FlightAware
11:13AM 34.1120 -110.4600 73° East 544 626 35,000  Level FlightAware
11:13AM 34.1390 -110.3460 74° East 544 626 35,000  Level FlightAware
11:14AM 34.1680 -110.2270 74° East 545 627 35,000  Level FlightAware
11:15AM 34.1990 -110.0980 74° East 544 626 35,000 60 Level FlightAware
11:15AM 34.2310 -109.9640 74° East 543 625 35,100  Climbing FlightAware
11:16AM 34.2580 -109.8500 74° East 543 625 35,000 -120 Descending FlightAware
11:17AM 34.2870 -109.7280 74° East 543 625 35,000  Level FlightAware
11:18AM 34.3110 -109.6290 74° East 543 625 35,000  Level FlightAware
11:23AM 34.5500 -108.6870 73° East 538 619 35,000  Level FlightAware
11:23AM 34.5800 -108.5780 71° East 537 618 35,000  Level FlightAware
11:24AM 34.6180 -108.4420 71° East 537 618 35,000  Level FlightAware
11:25AM 34.6480 -108.3260 73° East 537 618 35,000  Level FlightAware
11:26AM 34.6860 -108.1830 72° East 536 617 35,000  Level FlightAware
11:26AM 34.7160 -108.0720 72° East 536 617 35,000  Level FlightAware
11:27AM 34.7500 -107.9460 72° East 535 616 35,000  Level FlightAware
11:28AM 34.7800 -107.8340 72° East 535 616 35,000  Level FlightAware
11:28AM 34.8110 -107.7170 72° East 536 617 35,000  Level FlightAware
11:29AM 34.8460 -107.5840 72° East 537 618 35,000  Level FlightAware
11:30AM 34.8760 -107.4690 72° East 538 619 35,000  Level FlightAware
11:30AM 34.9060 -107.3530 72° East 538 619 35,000  Level FlightAware
11:31AM 34.9390 -107.2260 72° East 539 620 35,000  Level FlightAware
11:32AM 34.9690 -107.1100 72° East 541 623 35,000  Level FlightAware
11:33AM 35.0040 -106.9760 72° East 543 625 35,000  Level FlightAware
11:33AM 35.0340 -106.8560 73° East 542 624 35,000 60 Level FlightAware
11:34AM 35.0710 -106.7460 68° East 538 619 35,100 60 Climbing FlightAware
11:35AM 35.1170 -106.6250 65° Northeast 535 616 35,100 -120 Level FlightAware
11:35AM 35.1580 -106.5120 66° East 533 613 35,000 -120 Descending FlightAware
11:36AM 35.2040 -106.3890 65° Northeast 532 612 35,000  Level FlightAware
11:37AM 35.2440 -106.2790 66° East 531 611 35,000  Level FlightAware
11:37AM 35.2850 -106.1690 65° Northeast 531 611 35,000  Level FlightAware
11:38AM 35.3290 -106.0490 66° East 531 611 35,000  Level FlightAware
11:39AM 35.3740 -105.9250 66° East 536 617 35,000  Level FlightAware
11:40AM 35.4140 -105.8140 66° East 536 617 35,000  Level FlightAware
11:40AM 35.4560 -105.7000 66° East 532 612 35,000  Level FlightAware
11:41AM 35.4910 -105.6010 67° East 531 611 35,000  Level FlightAware
11:42AM 35.5250 -105.5070 66° East 531 611 35,000  Level FlightAware
11:42AM 35.5680 -105.3900 66° East 531 611 35,000  Level FlightAware
11:43AM 35.6020 -105.2960 66° East 531 611 35,000  Level FlightAware
11:44AM 35.6360 -105.2020 66° East 531 611 35,000  Level FlightAware
11:44AM 35.6700 -105.1080 66° East 531 611 35,000  Level FlightAware
11:45AM 35.7040 -105.0140 66° East 531 611 35,000  Level FlightAware
11:46AM 35.7370 -104.9200 67° East 531 611 35,000  Level FlightAware
11:47AM 35.7800 -104.8030 66° East 531 611 35,000  Level FlightAware
11:47AM 35.8140 -104.7080 66° East 531 611 35,000  Level FlightAware
11:48AM 35.8480 -104.6140 66° East 531 611 35,000  Level FlightAware
11:49AM 35.8820 -104.5200 66° East 531 611 35,000  Level FlightAware
11:49AM 35.9160 -104.4260 66° East 531 611 35,000  Level FlightAware
11:50AM 35.9580 -104.3080 66° East 531 611 35,000 60 Level FlightAware
11:50AM 35.9931 -103.9936 66° East 528 608 35,100 60 Climbing Albuquerque Center
11:51AM 36.0386 -103.8200 72° East 526 605 35,100 -60 Level Albuquerque Center
11:53AM 36.0833 -103.6481 72° East 523 602 35,000 -60 Descending Albuquerque Center
11:54AM 36.1281 -103.4803 72° East 513 590 35,000  Level Albuquerque Center
11:55AM 36.1728 -103.3081 72° East 516 594 35,000  Level Albuquerque Center
11:56AM 36.2158 -103.1353 73° East 521 600 35,000  Level Albuquerque Center
11:57AM 36.2583 -102.9650 73° East 516 594 35,100  Climbing Albuquerque Center
11:58AM 36.3058 -102.7806 72° East 511 588 35,000 -60 Descending Albuquerque Center
11:59AM 36.3475 -102.6119 73° East 511 588 35,000  Level Albuquerque Center
12:00PM 36.3892 -102.4439 73° East 510 587 35,000  Level Albuquerque Center
12:01PM 36.4322 -102.2742 72° East 513 590 35,000  Level Albuquerque Center
12:02PM 36.4733 -102.1039 73° East 514 592 35,000  Level Albuquerque Center
12:03PM 36.5231 -101.8978 73° East 518 596 35,000  Level Albuquerque Center
12:04PM 36.5644 -101.7258 73° East 518 596 35,100  Climbing Albuquerque Center
12:05PM 36.6078 -101.5478 73° East 519 597 35,000 -60 Descending Albuquerque Center
12:06PM 36.6469 -101.3847 73° East 516 594 35,000  Level Albuquerque Center
12:06PM 36.6717 -101.2756 74° East 515 593 35,000  Level Kansas City Center
12:07PM 36.7103 -101.1122 74° East 515 593 35,000  Level Kansas City Center
12:09PM 36.7494 -100.9508 73° East 513 590 35,000  Level Kansas City Center
12:10PM 36.7936 -100.7606 74° East 514 592 35,000  Level Kansas City Center
12:11PM 36.8303 -100.5986 74° East 512 589 35,000  Level Kansas City Center
12:12PM 36.8744 -100.4089 74° East 512 589 35,000  Level Kansas City Center
12:13PM 36.9103 -100.2469 74° East 509 586 35,000  Level Kansas City Center
12:14PM 36.9506 -100.0711 74° East 508 585 35,000  Level Kansas City Center
12:15PM 36.9881 -99.8992 75° East 507 583 35,000  Level Kansas City Center
12:16PM 37.0319 -99.7072 74° East 509 586 35,100  Climbing Kansas City Center
12:22PM 37.2540 -98.6830 74° East 496 571 35,000 -60 Descending FlightAware
12:23PM 37.2770 -98.5690 76° East 496 571 35,000  Level FlightAware
12:23PM 37.2970 -98.4750 75° East 496 571 35,000  Level FlightAware
12:24PM 37.3210 -98.3610 75° East 496 571 35,000  Level FlightAware
12:25PM 37.3500 -98.2210 75° East 496 571 35,000  Level FlightAware
12:25PM 37.3750 -98.0990 76° East 497 572 35,000  Level FlightAware
12:26PM 37.3990 -97.9850 75° East 495 570 35,000  Level FlightAware
12:27PM 37.4210 -97.8730 76° East 495 570 35,000  Level FlightAware
12:27PM 37.4470 -97.7450 76° East 495 570 35,000 60 Level FlightAware
12:28PM 37.4690 -97.6360 76° East 494 568 35,100  Climbing FlightAware
12:29PM 37.4940 -97.5110 76° East 493 567 35,000 -120 Descending FlightAware
12:30PM 37.5160 -97.4000 76° East 492 566 35,000  Level FlightAware
12:30PM 37.5390 -97.2890 75° East 492 566 35,000  Level FlightAware
12:31PM 37.5620 -97.1670 77° East 493 567 35,000  Level FlightAware
12:32PM 37.5850 -97.0530 76° East 493 567 35,000  Level FlightAware
12:32PM 37.6080 -96.9330 76° East 492 566 35,000  Level FlightAware
12:33PM 37.6290 -96.8280 76° East 491 565 35,000  Level FlightAware
12:34PM 37.6520 -96.7090 76° East 491 565 35,000  Level FlightAware
12:34PM 37.6760 -96.5810 77° East 490 564 35,000  Level FlightAware
12:35PM 37.6970 -96.4730 76° East 491 565 35,000  Level FlightAware
12:36PM 37.7260 -96.3230 76° East 492 566 35,000  Level FlightAware
12:37PM 37.7440 -96.2280 76° East 492 566 35,000  Level FlightAware
12:37PM 37.7630 -96.1330 76° East 492 566 35,000  Level FlightAware
12:38PM 37.7820 -96.0380 76° East 492 566 35,000  Level FlightAware
12:39PM 37.8050 -95.9190 76° East 492 566 35,000  Level FlightAware
12:40PM 37.8240 -95.8240 76° East 492 566 35,000  Level FlightAware
12:40PM 37.8430 -95.7290 76° East 492 566 35,000  Level FlightAware
12:41PM 37.8610 -95.6340 76° East 492 566 35,000  Level FlightAware
12:42PM 37.8800 -95.5390 76° East 492 566 35,000  Level FlightAware
12:42PM 37.9030 -95.4200 76° East 492 566 35,000  Level FlightAware
12:43PM 37.9220 -95.3240 76° East 492 566 35,000  Level FlightAware
12:44PM 37.9730 -94.9620 80° East 502 578 35,000  Level FlightAware
12:45PM 37.9950 -94.8380 77° East 503 579 35,000  Level FlightAware
12:45PM 38.0160 -94.7170 78° East 504 580 35,000  Level FlightAware
12:46PM 38.0350 -94.6100 77° East 504 580 35,000  Level FlightAware
12:47PM 38.0590 -94.4720 78° East 505 581 35,000 60 Level FlightAware
12:47PM 38.0790 -94.3530 78° East 506 582 35,100  Climbing FlightAware
12:48PM 38.1000 -94.2280 78° East 506 582 35,000 -120 Descending FlightAware
12:49PM 38.1190 -94.1120 78° East 507 583 35,000  Level FlightAware
12:50PM 38.1400 -93.9920 77° East 507 583 35,000  Level FlightAware
12:50PM 38.1580 -93.8840 78° East 507 583 35,000  Level FlightAware
12:51PM 38.1800 -93.7470 78° East 508 585 35,000  Level FlightAware
12:52PM 38.2020 -93.6160 78° East 508 585 35,000  Level FlightAware
12:52PM 38.2210 -93.4960 79° East 509 586 35,000  Level FlightAware
12:53PM 38.2390 -93.3810 79° East 509 586 35,000  Level FlightAware
12:54PM 38.2380 -93.2700 91° East 511 588 35,000  Level FlightAware
12:55PM 38.2350 -93.0950 91° East 512 589 35,000 60 Level FlightAware
12:55PM 38.2320 -92.9710 92° East 509 586 35,100  Climbing FlightAware
12:56PM 38.2290 -92.8510 92° East 507 583 35,000 -120 Descending FlightAware
12:57PM 38.2260 -92.7230 92° East 506 582 35,000  Level FlightAware
12:58PM 38.2430 -92.5810 81° East 500 575 35,000  Level FlightAware
12:58PM 38.2640 -92.4730 76° East 500 575 35,000  Level FlightAware
12:59PM 38.2830 -92.3760 76° East 500 575 35,000  Level FlightAware
01:00PM 38.3020 -92.2790 76° East 500 575 35,000  Level FlightAware
01:00PM 38.3250 -92.1570 76° East 500 575 35,000  Level FlightAware
01:01PM 38.3450 -92.0600 75° East 500 575 35,000  Level FlightAware
01:02PM 38.3640 -91.9620 76° East 500 575 35,000  Level FlightAware
01:02PM 38.3830 -91.8650 76° East 500 575 35,000  Level FlightAware
01:03PM 38.4020 -91.7680 76° East 500 575 35,000  Level FlightAware
01:04PM 38.4250 -91.6460 76° East 500 575 35,000  Level FlightAware
01:05PM 38.4440 -91.5480 76° East 500 575 35,000  Level FlightAware
01:05PM 38.4630 -91.4510 76° East 500 575 35,000  Level FlightAware
01:06PM 38.4820 -91.3540 76° East 500 575 35,000  Level FlightAware
01:07PM 38.5060 -91.2320 76° East 500 575 35,000  Level FlightAware
01:07PM 38.5250 -91.1340 76° East 500 575 35,000  Level FlightAware
01:08PM 38.5610 -90.7660 83° East 496 571 35,000  Level FlightAware
01:09PM 38.5840 -90.6280 78° East 497 572 35,000  Level FlightAware
01:09PM 38.6030 -90.5160 78° East 496 571 35,000  Level FlightAware
01:10PM 38.6190 -90.4180 78° East 496 571 35,000  Level FlightAware
01:11PM 38.6350 -90.3200 78° East 496 571 35,000 -1,020 Level FlightAware
01:12PM 38.6670 -90.1260 78° East 490 564 33,300 -1,200 Descending FlightAware
01:12PM 38.6860 -90.0080 78° East 487 560 33,000 -240 Descending FlightAware
01:13PM 38.7120 -89.8840 75° East 480 552 33,000  Level FlightAware
01:14PM 38.7450 -89.7970 64° Northeast 478 550 33,000  Level FlightAware
01:15PM 38.7950 -89.6680 64° Northeast 474 545 33,000  Level FlightAware
01:15PM 38.8280 -89.5860 63° Northeast 474 545 33,000  Level FlightAware
01:16PM 38.8770 -89.4570 64° Northeast 471 542 33,000  Level FlightAware
01:17PM 38.9170 -89.3550 63° Northeast 471 542 33,000 -360 Level FlightAware
01:17PM 38.9610 -89.2440 63° Northeast 457 526 32,500 -780 Descending FlightAware
01:18PM 38.9960 -89.1440 66° East 454 522 31,900 -840 Descending FlightAware
01:19PM 39.0140 -89.0440 77° East 458 527 31,400 -780 Descending FlightAware
01:20PM 39.0210 -88.9230 86° East 453 521 30,800 -1,080 Descending FlightAware
01:20PM 39.0270 -88.8180 86° East 445 512 29,900 -1,500 Descending FlightAware
01:21PM 39.0330 -88.6950 86° East 442 509 28,700 -1,620 Descending FlightAware
01:22PM 39.0380 -88.6060 86° East 435 501 27,800 -1,620 Descending FlightAware
01:22PM 39.0430 -88.4960 87° East 432 497 26,600 -1,620 Descending FlightAware
01:23PM 39.0490 -88.3710 86° East 424 488 25,400 -1,500 Descending FlightAware
01:24PM 39.0540 -88.2760 86° East 419 482 24,500 -1,020 Descending FlightAware
01:24PM 39.0590 -88.1670 87° East 420 483 24,000 -360 Descending FlightAware
01:25PM 39.0640 -88.0680 86° East 436 502 24,000 -420 Level FlightAware
01:26PM 39.0680 -87.9670 87° East 411 473 23,500 -840 Descending FlightAware
01:27PM 39.0750 -87.8250 86° East 397 457 22,700 -780 Descending FlightAware
01:27PM 39.1010 -87.7310 70° East 389 448 22,200 -780 Descending FlightAware
01:28PM 39.1300 -87.6360 68° East 388 447 21,600 -900 Descending FlightAware
01:29PM 39.1570 -87.5450 69° East 385 443 21,000 -1,200 Descending FlightAware
01:30PM 39.1820 -87.4620 69° East 380 437 20,000 -1,800 Descending FlightAware
01:30PM 39.2100 -87.3660 69° East 372 428 18,500 -1,440 Descending FlightAware
01:31PM 39.2300 -87.2970 69° East 371 427 18,100 -1,440 Descending FlightAware
01:32PM 39.2620 -87.1890 69° East 360 414 16,400 -1,020 Descending FlightAware
01:33PM 39.2870 -87.1040 69° East 360 414 16,400  Level FlightAware
01:33PM 39.3080 -87.0360 68° East 360 414 16,400  Level FlightAware
01:34PM 39.3280 -86.9670 69° East 360 414 16,400  Level FlightAware
01:35PM 39.3480 -86.8990 69° East 360 414 16,400  Level FlightAware
01:35PM 39.3680 -86.8310 69° East 360 414 16,400 -4,080 Level FlightAware
01:36PM 39.3969 -86.7300 69° East 329 379 11,000 -3,480 Descending Indianapolis Center
01:37PM 39.4364 -86.6292 63° Northeast 321 369 10,600 -540 Descending Indianapolis Center
01:38PM 39.4764 -86.5436 59° Northeast 292 336 9,900 -780 Descending Indianapolis Center
01:39PM 39.5244 -86.4422 58° Northeast 279 321 9,000 -840 Descending Indianapolis Center
01:40PM 39.5650 -86.3603 57° Northeast 275 316 8,200 -1,080 Descending Indianapolis Center
01:41PM 39.6069 -86.2814 55° Northeast 271 312 6,900 -1,380 Descending Indianapolis Center
01:41PM 39.6333 -86.2500 42° Northeast 267 307 6,300 -1,620 Descending Indianapolis TRACON
01:42PM 39.6833 -86.1667 52° Northeast 264 304 4,700 -1,500 Descending Indianapolis TRACON
01:43PM 39.7333 -86.1000 46° Northeast 239 275 3,400 -960 Descending Indianapolis TRACON
01:44PM 39.7644 -86.1036 355° North 240 276 3,100 -420 Descending Indianapolis Center
01:45PM 39.7817 -86.1733 288° West 221 254 2,700 -540 Descending Indianapolis Center
01:46PM 39.7567 -86.2333 242° Southwest 204 235 2,000 -840 Descending Indianapolis Center
01:47PM 39.7256 -86.2739 225° Southwest 175 201 1,000 -540 Descending Indianapolis Center
01:48PM 39.6964 -86.3103 224° Southwest 169 194 900 -120 Descending Indianapolis Center